ENSG/SOG METAR and TAF weather

Enter ICAO airport designator
Station Type Date Time Source
ENSG METAR 2020/07/06 19:20 UTC NOAA

ENSG 061920Z 25012KT 9999 SCT022 SCT050 08/05 Q1002 RMK WIND 3806FT 29032KT


Station Type Date Time Source
ENSG Decoded METAR 2020/07/06 19:20 UTC NOAA

Sogndal / Haukasen, Norway (ENSG) 61-09N 007-08E 497M
Jul 06, 2020 - 03:20 PM EDT / 2020.07.06 1920 UTC
Wind: from the WSW (250 degrees) at 14 MPH (12 KT):0
Visibility: greater than 7 mile(s):0
Sky conditions: partly cloudy
Temperature: 46 F (8 C)
Dew Point: 41 F (5 C)
Relative Humidity: 81%
Pressure (altimeter): 29.59 in. Hg (1002 hPa)
ob: ENSG 061920Z 25012KT 9999 SCT022 SCT050 08/05 Q1002 RMK WIND 3806FT 29032KT
cycle: 19

Station Type Date Time Source
ENSG TAF UTC NOAA

Error!

Example: see airport list